Time;durP1;ratioP1;P1;durP2;ratioP2;P2;SDS_P1;SDS_P2;PMS_P1;PMS_P2;Temp;Humidity;BMP_temperature;BMP_pressure;BME280_temperature;BME280_humidity;BME280_pressure;Samples;Min_cycle;Max_cycle;Signal;HPM_P1;HPM_P2
2021/10/04 00:00:51;;;;;;;;;;;;;;;21.76;31.85;98758.69;4866639;29;924;-79
2021/10/04 00:03:16;;;;;;;;;;;;;;;21.72;32.02;98755.09;4866845;29;849;-79
2021/10/04 00:05:42;;;;;;;;;;;;;;;21.71;32.08;98752.69;4867019;29;950;-79
2021/10/04 00:08:07;;;;;;;;;;;;;;;21.64;32.48;98750.75;4866908;29;1912;-79
2021/10/04 00:10:33;;;;;;;;;;;;;;;21.75;31.91;98745.72;4866916;29;597;-80
2021/10/04 00:12:58;;;;;;;;;;;;;;;21.74;32.07;98744.13;4866934;29;660;-79
2021/10/04 00:15:25;;;;;;;;;;;;;;;21.66;32.48;98748.31;4869751;29;1060;-79
2021/10/04 00:17:50;;;;;;;;;;;;;;;21.47;32.82;98740.50;4869902;29;847;-79
2021/10/04 00:20:16;;;;;;;;;;;;;;;21.98;32.64;98741.34;4870236;29;910;-79
2021/10/04 00:22:42;;;;;;;;;;;;;;;22.07;32.51;98744.41;4870083;29;650;-79
2021/10/04 00:25:07;;;;;;;;;;;;;;;22.30;31.85;98747.28;4869472;29;856;-79
2021/10/04 00:27:33;;;;;;;;;;;;;;;21.90;32.12;98739.84;4870060;29;1915;-79
2021/10/04 00:30:05;;;;;;;;;;;;;;;21.89;31.98;98739.03;4869743;29;917;-79
2021/10/04 00:32:30;;;;;;;;;;;;;;;21.79;32.22;98740.81;4869972;29;901;-79
2021/10/04 00:34:56;;;;;;;;;;;;;;;21.66;32.16;98737.00;4868976;29;997;-79
2021/10/04 00:37:21;;;;;;;;;;;;;;;21.65;32.39;98740.22;4869984;29;716;-80
2021/10/04 00:39:47;;;;;;;;;;;;;;;21.66;32.47;98742.66;4869975;29;617;-79
2021/10/04 00:42:12;;;;;;;;;;;;;;;21.64;32.44;98750.75;4869864;29;669;-79
2021/10/04 00:44:38;;;;;;;;;;;;;;;21.70;32.07;98743.38;4869516;29;909;-79
2021/10/04 00:47:03;;;;;;;;;;;;;;;21.74;32.40;98737.66;4868570;29;1968;-79
2021/10/04 00:49:29;;;;;;;;;;;;;;;22.19;32.60;98740.22;4869013;29;1292;-79
2021/10/04 00:51:54;;;;;;;;;;;;;;;22.34;32.13;98742.38;4868569;29;852;-79
2021/10/04 00:54:19;;;;;;;;;;;;;;;22.67;31.57;98738.91;4869645;29;717;-80
2021/10/04 00:56:45;;;;;;;;;;;;;;;22.40;31.45;98739.03;4869720;29;644;-80
2021/10/04 00:59:10;;;;;;;;;;;;;;;22.04;31.68;98742.44;4869236;29;881;-79
2021/10/04 01:01:36;;;;;;;;;;;;;;;21.87;31.55;98735.84;4868575;29;913;-79
2021/10/04 01:04:01;;;;;;;;;;;;;;;21.78;31.88;98730.72;4869440;29;951;-79
2021/10/04 01:06:27;;;;;;;;;;;;;;;21.88;31.64;98736.66;4869333;29;1895;-79
2021/10/04 01:08:52;;;;;;;;;;;;;;;21.75;31.90;98734.41;4868724;29;800;-79
2021/10/04 01:11:18;;;;;;;;;;;;;;;21.82;31.70;98733.50;4869057;29;977;-79
2021/10/04 01:13:43;;;;;;;;;;;;;;;21.67;31.83;98735.75;4868018;29;906;-79
2021/10/04 01:16:08;;;;;;;;;;;;;;;21.78;31.90;98733.56;4869167;29;1043;-79
2021/10/04 01:18:35;;;;;;;;;;;;;;;21.60;32.20;98735.84;4869295;29;681;-79
2021/10/04 01:21:01;;;;;;;;;;;;;;;21.60;32.06;98733.00;4869092;29;643;-79
2021/10/04 01:23:28;;;;;;;;;;;;;;;21.66;32.15;98730.50;4868184;29;931;-79
2021/10/04 01:25:54;;;;;;;;;;;;;;;21.62;31.97;98735.44;4868072;29;980;-80
2021/10/04 01:28:20;;;;;;;;;;;;;;;21.73;32.07;98736.88;4868101;29;1975;-78
2021/10/04 01:30:45;;;;;;;;;;;;;;;21.69;32.07;98738.94;4868966;29;869;-79
2021/10/04 01:33:10;;;;;;;;;;;;;;;21.63;32.28;98739.88;4868954;29;621;-79
2021/10/04 01:35:36;;;;;;;;;;;;;;;21.63;32.46;98731.38;4867867;29;773;-79
2021/10/04 01:38:01;;;;;;;;;;;;;;;21.63;32.28;98732.16;4867542;29;912;-80
2021/10/04 01:40:27;;;;;;;;;;;;;;;21.69;31.83;98730.44;4867647;29;953;-80
2021/10/04 01:42:52;;;;;;;;;;;;;;;22.00;32.74;98742.50;4868861;29;983;-79
2021/10/04 01:45:19;;;;;;;;;;;;;;;22.29;32.56;98740.03;4868770;29;700;-79
2021/10/04 01:47:44;;;;;;;;;;;;;;;22.51;31.99;98736.78;4867652;29;1927;-80
2021/10/04 01:50:10;;;;;;;;;;;;;;;22.14;31.97;98743.53;4868663;29;728;-79
2021/10/04 01:52:35;;;;;;;;;;;;;;;21.90;32.04;98739.84;4867656;29;955;-79
2021/10/04 01:55:01;;;;;;;;;;;;;;;21.95;31.93;98736.53;4868344;29;928;-79
2021/10/04 01:57:27;;;;;;;;;;;;;;;21.84;32.50;98739.53;4868746;29;933;-79
2021/10/04 01:59:53;;;;;;;;;;;;;;;22.18;32.73;98733.75;4868630;29;648;-80
2021/10/04 02:02:19;;;;;;;;;;;;;;;22.52;31.60;98729.88;4868508;29;685;-79
2021/10/04 02:04:44;;;;;;;;;;;;;;;22.20;31.51;98719.94;4867342;29;835;-79
2021/10/04 02:07:10;;;;;;;;;;;;;;;21.97;31.75;98719.91;4867962;29;1899;-80
2021/10/04 02:09:35;;;;;;;;;;;;;;;21.89;31.45;98735.41;4868313;29;932;-79
2021/10/04 02:12:00;;;;;;;;;;;;;;;21.84;31.24;98729.00;4868593;29;609;-79
2021/10/04 02:14:26;;;;;;;;;;;;;;;21.87;31.41;98727.34;4868130;29;995;-79
2021/10/04 02:16:51;;;;;;;;;;;;;;;21.82;31.86;98725.81;4867549;29;641;-79
2021/10/04 02:19:17;;;;;;;;;;;;;;;21.74;31.97;98732.81;4868254;29;945;-79
2021/10/04 02:21:42;;;;;;;;;;;;;;;21.59;32.40;98725.75;4867096;29;1245;-79
2021/10/04 02:24:08;;;;;;;;;;;;;;;21.81;32.03;98729.88;4868083;29;1002;-79
2021/10/04 02:26:33;;;;;;;;;;;;;;;21.83;31.79;98733.06;4868055;29;1981;-79
2021/10/04 02:28:59;;;;;;;;;;;;;;;21.77;32.11;98719.81;4867989;29;684;-79
2021/10/04 02:31:24;;;;;;;;;;;;;;;21.64;32.01;98727.31;4868146;29;679;-79
2021/10/04 02:33:49;;;;;;;;;;;;;;;21.64;32.09;98728.09;4867673;29;1016;-79
2021/10/04 02:36:21;;;;;;;;;;;;;;;21.76;31.90;98723.88;4866256;29;886;-80
2021/10/04 02:38:46;;;;;;;;;;;;;;;21.94;32.50;98729.25;4867860;29;939;-80
2021/10/04 02:41:12;;;;;;;;;;;;;;;22.16;32.51;98727.69;4867870;29;754;-80
2021/10/04 02:43:37;;;;;;;;;;;;;;;22.44;31.97;98722.75;4867907;29;632;-79
2021/10/04 02:46:03;;;;;;;;;;;;;;;22.19;31.98;98718.34;4867821;29;653;-79
2021/10/04 02:48:28;;;;;;;;;;;;;;;21.93;32.29;98722.00;4867325;29;1906;-80
2021/10/04 02:50:54;;;;;;;;;;;;;;;21.78;31.85;98722.22;4867279;29;846;-79
2021/10/04 02:53:19;;;;;;;;;;;;;;;21.86;31.80;98734.22;4866723;29;929;-79
2021/10/04 02:55:44;;;;;;;;;;;;;;;21.70;32.07;98729.22;4867636;29;693;-79
2021/10/04 02:58:10;;;;;;;;;;;;;;;21.70;32.12;98734.09;4867542;29;679;-80
2021/10/04 03:00:36;;;;;;;;;;;;;;;21.69;32.39;98724.78;4867579;29;656;-79
2021/10/04 03:03:02;;;;;;;;;;;;;;;21.64;32.43;98742.25;4866411;29;882;-79
2021/10/04 03:05:28;;;;;;;;;;;;;;;21.59;32.50;98742.75;4866202;29;1007;-79
2021/10/04 03:07:53;;;;;;;;;;;;;;;21.72;32.80;98755.09;4867366;29;1980;-78
2021/10/04 03:10:18;;;;;;;;;;;;;;;22.11;32.56;98750.84;4866927;29;1122;-79
2021/10/04 03:12:44;;;;;;;;;;;;;;;22.35;31.99;98749.63;4866988;29;1269;-78
2021/10/04 03:15:09;;;;;;;;;;;;;;;22.10;31.92;98752.06;4866917;29;1197;-79
2021/10/04 03:17:35;;;;;;;;;;;;;;;21.97;31.85;98754.72;4866686;29;1402;-79
2021/10/04 03:20:00;;;;;;;;;;;;;;;21.92;31.82;98755.19;4866636;29;1332;-78
2021/10/04 03:22:26;;;;;;;;;;;;;;;21.69;32.13;98747.44;4866994;29;1241;-79
2021/10/04 03:24:51;;;;;;;;;;;;;;;21.68;32.13;98740.19;4866934;29;1245;-79
2021/10/04 03:27:17;;;;;;;;;;;;;;;21.64;32.33;98745.09;4866795;29;1903;-79
2021/10/04 03:29:42;;;;;;;;;;;;;;;21.63;32.57;98749.16;4866163;29;1246;-79
2021/10/04 03:32:08;;;;;;;;;;;;;;;21.80;32.83;98742.41;4866132;29;1179;-79
2021/10/04 03:34:34;;;;;;;;;;;;;;;22.12;32.28;98743.94;4867149;29;837;-79
2021/10/04 03:37:00;;;;;;;;;;;;;;;22.38;31.90;98749.97;4867398;29;905;-79
2021/10/04 03:39:26;;;;;;;;;;;;;;;22.22;31.59;98740.13;4866294;29;769;-79
2021/10/04 03:41:52;;;;;;;;;;;;;;;22.00;31.74;98741.69;4867199;29;692;-79
2021/10/04 03:44:17;;;;;;;;;;;;;;;21.82;31.64;98739.97;4867361;29;716;-79
2021/10/04 03:46:43;;;;;;;;;;;;;;;21.94;31.81;98737.75;4866847;29;1891;-79
2021/10/04 03:49:08;;;;;;;;;;;;;;;21.84;31.80;98740.34;4868269;29;920;-79
2021/10/04 03:51:33;;;;;;;;;;;;;;;21.78;31.85;98736.38;4870721;29;966;-79
2021/10/04 03:53:59;;;;;;;;;;;;;;;21.70;31.93;98728.41;4870869;29;645;-79
2021/10/04 03:56:24;;;;;;;;;;;;;;;21.70;31.87;98731.25;4870586;29;669;-79
2021/10/04 03:58:50;;;;;;;;;;;;;;;21.68;31.81;98728.84;4871141;29;801;-79
2021/10/04 04:01:15;;;;;;;;;;;;;;;21.74;31.87;98732.81;4870539;29;1087;-79
2021/10/04 04:03:41;;;;;;;;;;;;;;;21.76;31.76;98730.34;4870360;29;833;-79
2021/10/04 04:06:06;;;;;;;;;;;;;;;21.81;31.80;98738.38;4870487;29;842;-80
2021/10/04 04:08:33;;;;;;;;;;;;;;;21.66;31.88;98733.31;4870314;29;1973;-80
2021/10/04 04:10:59;;;;;;;;;;;;;;;21.60;32.05;98741.50;4869629;29;864;-79
2021/10/04 04:13:25;;;;;;;;;;;;;;;21.69;31.87;98736.13;4870312;29;688;-80
2021/10/04 04:15:50;;;;;;;;;;;;;;;21.55;32.20;98736.31;4869953;29;1101;-79
2021/10/04 04:18:16;;;;;;;;;;;;;;;21.69;31.85;98730.44;4869874;29;920;-79
2021/10/04 04:20:41;;;;;;;;;;;;;;;21.63;32.32;98743.50;4870040;29;987;-80
2021/10/04 04:23:06;;;;;;;;;;;;;;;21.59;32.20;98748.41;4870252;29;609;-79
2021/10/04 04:25:32;;;;;;;;;;;;;;;21.45;32.47;98742.94;4870213;29;748;-79
2021/10/04 04:27:59;;;;;;;;;;;;;;;21.73;31.87;98753.06;4870114;29;1919;-79
2021/10/04 04:30:24;;;;;;;;;;;;;;;21.63;32.12;98760.50;4869165;29;985;-80
2021/10/04 04:32:49;;;;;;;;;;;;;;;21.90;33.02;98756.84;4869708;29;929;-80
2021/10/04 04:35:15;;;;;;;;;;;;;;;22.27;32.18;98765.16;4870037;29;886;-79
2021/10/04 04:37:40;;;;;;;;;;;;;;;22.33;31.83;98769.13;4869959;29;640;-80
2021/10/04 04:40:07;;;;;;;;;;;;;;;21.84;31.97;98760.16;4869977;29;684;-80
2021/10/04 04:42:32;;;;;;;;;;;;;;;21.77;32.08;98768.78;4869943;29;685;-80
2021/10/04 04:44:58;;;;;;;;;;;;;;;21.71;31.98;98767.66;4869630;29;941;-79
2021/10/04 04:47:23;;;;;;;;;;;;;;;21.70;31.79;98766.03;4869473;29;1974;-79
2021/10/04 04:49:49;;;;;;;;;;;;;;;21.71;31.84;98767.66;4869690;29;853;-80
2021/10/04 04:52:14;;;;;;;;;;;;;;;21.94;32.80;98781.06;4869753;29;646;-79
2021/10/04 04:54:40;;;;;;;;;;;;;;;22.25;32.90;98773.28;4869583;29;733;-80
2021/10/04 04:57:06;;;;;;;;;;;;;;;22.42;32.00;98776.25;4869798;29;705;-79
2021/10/04 04:59:31;;;;;;;;;;;;;;;22.10;31.93;98777.56;4869104;29;929;-80
2021/10/04 05:01:57;;;;;;;;;;;;;;;21.79;32.71;98768.34;4869306;29;856;-79
2021/10/04 05:04:23;;;;;;;;;;;;;;;21.76;32.36;98772.84;4868386;29;931;-79
2021/10/04 05:06:48;;;;;;;;;;;;;;;21.76;32.09;98775.69;4869554;29;1974;-80
2021/10/04 05:09:14;;;;;;;;;;;;;;;21.72;32.25;98777.75;4868665;29;1013;-79
2021/10/04 05:11:39;;;;;;;;;;;;;;;21.50;33.18;98787.78;4868367;29;852;-79
2021/10/04 05:14:05;;;;;;;;;;;;;;;21.81;32.13;98789.38;4869155;29;1150;-80
2021/10/04 05:16:30;;;;;;;;;;;;;;;21.78;32.56;98778.88;4868042;29;931;-79
2021/10/04 05:18:56;;;;;;;;;;;;;;;21.80;32.30;98790.56;4869217;29;905;-80
2021/10/04 05:21:21;;;;;;;;;;;;;;;21.85;32.33;98795.75;4869573;29;694;-80
2021/10/04 05:23:47;;;;;;;;;;;;;;;21.68;32.42;98794.00;4869210;29;645;-80
2021/10/04 05:26:12;;;;;;;;;;;;;;;21.65;32.52;98797.66;4868367;29;1275;-79
2021/10/04 05:28:37;;;;;;;;;;;;;;;21.71;32.54;98795.16;4869086;29;1954;-80
2021/10/04 05:31:03;;;;;;;;;;;;;;;21.87;32.67;98800.22;4868885;29;845;-79
2021/10/04 05:33:30;;;;;;;;;;;;;;;22.21;33.19;98803.72;4868129;29;823;-80
2021/10/04 05:35:55;;;;;;;;;;;;;;;22.45;32.99;98809.44;4869044;29;684;-79
2021/10/04 05:38:21;;;;;;;;;;;;;;;22.32;32.55;98807.19;4868986;29;696;-80
2021/10/04 05:40:46;;;;;;;;;;;;;;;22.05;32.86;98809.22;4868901;29;625;-80
2021/10/04 05:43:12;;;;;;;;;;;;;;;21.98;33.02;98804.47;4868584;29;929;-79
2021/10/04 05:45:37;;;;;;;;;;;;;;;21.88;32.72;98804.66;4868539;29;875;-79
2021/10/04 05:48:03;;;;;;;;;;;;;;;21.68;33.18;98813.81;4868545;29;1899;-79
2021/10/04 05:50:28;;;;;;;;;;;;;;;21.79;33.16;98814.47;4868730;29;640;-79
2021/10/04 05:52:53;;;;;;;;;;;;;;;21.84;33.04;98811.16;4868638;29;716;-79
2021/10/04 05:55:19;;;;;;;;;;;;;;;21.85;32.97;98818.41;4867598;29;954;-80
2021/10/04 05:57:45;;;;;;;;;;;;;;;21.83;33.15;98818.06;4868420;29;1039;-79
2021/10/04 06:00:10;;;;;;;;;;;;;;;21.89;33.01;98823.25;4868271;29;822;-79
2021/10/04 06:02:36;;;;;;;;;;;;;;;21.84;32.82;98833.81;4867586;29;1033;-79
2021/10/04 06:05:01;;;;;;;;;;;;;;;21.77;32.92;98828.28;4867775;29;597;-79
2021/10/04 06:07:27;;;;;;;;;;;;;;;21.87;32.91;98825.72;4867645;29;1899;-79
2021/10/04 06:09:52;;;;;;;;;;;;;;;21.94;32.83;98825.59;4867410;29;864;-79
2021/10/04 06:12:24;;;;;;;;;;;;;;;21.72;33.07;98834.41;4867400;29;980;-80
2021/10/04 06:14:50;;;;;;;;;;;;;;;21.74;33.00;98826.28;4867843;29;964;-79
2021/10/04 06:17:15;;;;;;;;;;;;;;;21.76;32.84;98823.84;4868097;29;664;-79
2021/10/04 06:19:40;;;;;;;;;;;;;;;21.68;33.28;98824.34;4867178;29;872;-79
2021/10/04 06:22:06;;;;;;;;;;;;;;;21.78;32.85;98829.88;4868314;29;755;-79
2021/10/04 06:24:31;;;;;;;;;;;;;;;21.83;33.16;98834.25;4868075;29;633;-79
2021/10/04 06:26:57;;;;;;;;;;;;;;;21.84;33.16;98831.00;4868017;29;1975;-79
2021/10/04 06:29:22;;;;;;;;;;;;;;;21.90;32.87;98824.84;4867694;29;1019;-79
2021/10/04 06:31:48;;;;;;;;;;;;;;;21.83;32.85;98826.56;4867707;29;897;-79
2021/10/04 06:34:13;;;;;;;;;;;;;;;21.76;33.15;98826.66;4867927;29;972;-79
2021/10/04 06:36:39;;;;;;;;;;;;;;;21.64;33.03;98830.06;4867971;29;688;-79
2021/10/04 06:39:04;;;;;;;;;;;;;;;21.69;33.17;98837.28;4867154;29;817;-79
2021/10/04 06:41:30;;;;;;;;;;;;;;;21.75;32.77;98830.72;4867996;29;621;-79
2021/10/04 06:43:55;;;;;;;;;;;;;;;22.14;33.53;98839.91;4867555;29;860;-79
2021/10/04 06:46:20;;;;;;;;;;;;;;;22.23;33.97;98832.47;4867374;29;1899;-79
2021/10/04 06:48:46;;;;;;;;;;;;;;;22.48;34.06;98839.75;4867681;29;1004;-80
2021/10/04 06:51:11;;;;;;;;;;;;;;;22.14;33.47;98846.38;4867843;29;751;-79
2021/10/04 06:53:37;;;;;;;;;;;;;;;21.91;34.17;98834.94;4867247;29;1895;-79
2021/10/04 06:56:02;;;;;;;;;;;;;;;21.91;33.75;98849.09;4867736;29;681;-79
2021/10/04 06:58:28;;;;;;;;;;;;;;;21.88;33.56;98849.97;4866619;29;1450;-79
2021/10/04 07:00:53;;;;;;;;;;;;;;;21.82;33.59;98849.66;4867334;29;913;-80
2021/10/04 07:03:19;;;;;;;;;;;;;;;21.80;33.73;98838.72;4868011;29;972;-79
2021/10/04 07:05:45;;;;;;;;;;;;;;;21.79;33.38;98847.66;4867534;29;650;-79
2021/10/04 07:08:11;;;;;;;;;;;;;;;22.01;33.20;98848.16;4866583;29;2043;-80
2021/10/04 07:10:36;;;;;;;;;;;;;;;21.88;33.01;98852.81;4867557;29;644;-79
2021/10/04 07:13:02;;;;;;;;;;;;;;;21.90;33.34;98850.34;4867264;29;979;-79
2021/10/04 07:15:27;;;;;;;;;;;;;;;21.93;32.97;98846.66;4866933;29;1003;-79
2021/10/04 07:17:53;;;;;;;;;;;;;;;21.84;33.18;98847.19;4867327;29;893;-78
2021/10/04 07:20:18;;;;;;;;;;;;;;;21.88;32.90;98855.66;4867418;29;739;-79
2021/10/04 07:22:44;;;;;;;;;;;;;;;21.95;33.03;98852.69;4867507;29;724;-79
2021/10/04 07:25:09;;;;;;;;;;;;;;;21.77;33.21;98850.94;4869987;29;840;-80
2021/10/04 07:27:35;;;;;;;;;;;;;;;21.96;32.58;98851.47;4869681;29;1907;-79
2021/10/04 07:30:00;;;;;;;;;;;;;;;21.92;32.55;98847.91;4870838;29;942;-79
2021/10/04 07:32:26;;;;;;;;;;;;;;;21.90;32.76;98844.69;4870387;29;993;-80
2021/10/04 07:34:51;;;;;;;;;;;;;;;21.65;33.23;98848.66;4871053;29;645;-80
2021/10/04 07:37:17;;;;;;;;;;;;;;;21.81;32.78;98851.69;4871002;29;720;-80
2021/10/04 07:39:42;;;;;;;;;;;;;;;21.84;32.63;98862.16;4869951;29;928;-79
2021/10/04 07:42:08;;;;;;;;;;;;;;;21.74;32.83;98857.44;4870660;29;962;-79
2021/10/04 07:44:33;;;;;;;;;;;;;;;21.68;32.56;98861.19;4870158;29;1331;-79
2021/10/04 07:47:01;;;;;;;;;;;;;;;21.61;32.42;98861.28;4870672;29;1908;-79
2021/10/04 07:49:26;;;;;;;;;;;;;;;21.96;33.11;98862.78;4870941;29;601;-79
2021/10/04 07:51:52;;;;;;;;;;;;;;;22.27;33.47;98861.53;4870712;29;704;-79
2021/10/04 07:54:17;;;;;;;;;;;;;;;22.34;33.34;98860.66;4870839;29;696;-80
2021/10/04 07:56:44;;;;;;;;;;;;;;;22.45;33.49;98863.31;4870412;29;857;-79
2021/10/04 07:59:09;;;;;;;;;;;;;;;22.39;33.30;98867.88;4870411;29;930;-79
2021/10/04 08:01:35;;;;;;;;;;;;;;;21.97;33.38;98870.09;4869472;29;990;-79
2021/10/04 08:04:01;;;;;;;;;;;;;;;22.01;33.29;98877.28;4870718;29;656;-80
2021/10/04 08:06:26;;;;;;;;;;;;;;;21.97;32.79;98873.72;4870776;29;1969;-79
2021/10/04 08:08:55;;;;;;;;;;;;;;;21.98;32.86;98877.34;4870478;29;589;-79
2021/10/04 08:11:21;;;;;;;;;;;;;;;21.93;32.84;98869.34;4870172;29;970;-79
2021/10/04 08:13:49;;;;;;;;;;;;;;;21.89;32.97;98877.06;4870074;29;1024;-79
2021/10/04 08:16:15;;;;;;;;;;;;;;;21.79;33.03;98876.78;4870210;29;1057;-79
2021/10/04 08:18:40;;;;;;;;;;;;;;;21.81;32.98;98873.53;4870499;29;644;-79
2021/10/04 08:21:06;;;;;;;;;;;;;;;21.73;32.75;98884.16;4870363;29;657;-79
2021/10/04 08:23:31;;;;;;;;;;;;;;;21.89;32.50;98877.06;4869250;29;810;-79
2021/10/04 08:25:57;;;;;;;;;;;;;;;21.77;32.98;98879.25;4869056;29;1254;-79
2021/10/04 08:28:22;;;;;;;;;;;;;;;21.67;32.69;98880.19;4869809;29;1907;-79
2021/10/04 08:30:48;;;;;;;;;;;;;;;21.72;32.49;98874.06;4870246;29;995;-79
2021/10/04 08:33:13;;;;;;;;;;;;;;;21.71;32.94;98875.31;4870077;29;613;-79
2021/10/04 08:35:39;;;;;;;;;;;;;;;21.65;32.58;98871.31;4868526;29;856;-80
2021/10/04 08:38:04;;;;;;;;;;;;;;;21.78;32.43;98874.41;4869767;29;1031;-79
2021/10/04 08:40:30;;;;;;;;;;;;;;;21.63;32.44;98868.13;4868531;29;920;-79
2021/10/04 08:42:55;;;;;;;;;;;;;;;21.81;32.42;98867.84;4869832;29;1114;-79
2021/10/04 08:45:24;;;;;;;;;;;;;;;21.79;32.09;98873.97;4868676;29;927;-80
2021/10/04 08:47:52;;;;;;;;;;;;;;;22.07;33.02;98871.94;4868842;29;1900;-79
2021/10/04 08:50:17;;;;;;;;;;;;;;;22.27;33.46;98872.88;4869893;29;732;-79
2021/10/04 08:52:43;;;;;;;;;;;;;;;22.37;33.55;98865.44;4869411;29;1055;-79
2021/10/04 08:55:08;;;;;;;;;;;;;;;22.06;33.49;98862.63;4868509;29;889;-79
2021/10/04 08:57:34;;;;;;;;;;;;;;;22.06;32.87;98861.84;4869632;29;979;-79
2021/10/04 08:59:59;;;;;;;;;;;;;;;21.89;33.00;98862.91;4868655;29;777;-79
2021/10/04 09:02:28;;;;;;;;;;;;;;;21.88;32.39;98858.47;4869593;29;633;-79
2021/10/04 09:05:13;;;;;;;;;;;;;;;21.81;32.41;98854.53;4869537;29;660;-79
2021/10/04 09:07:39;;;;;;;;;;;;;;;21.77;32.22;98839.59;4869451;29;1975;-79
2021/10/04 09:10:05;;;;;;;;;;;;;;;21.74;32.18;98845.31;4869418;29;899;-79
2021/10/04 09:13:03;;;;;;;;;;;;;;;21.78;32.32;98852.53;4869414;29;699;-79
2021/10/04 09:15:35;;;;;;;;;;;;;;;21.64;32.23;98841.38;4858365;29;1155;-79
2021/10/04 09:18:01;;;;;;;;;;;;;;;21.81;31.78;98850.84;4869359;29;656;-79
2021/10/04 09:20:45;;;;;;;;;;;;;;;21.81;31.70;98840.34;4868302;29;921;-79
2021/10/04 09:23:25;;;;;;;;;;;;;;;22.05;32.78;98831.91;4869291;29;651;-79
2021/10/04 09:25:51;;;;;;;;;;;;;;;22.41;32.24;98826.50;4868925;29;964;-79
2021/10/04 09:28:25;;;;;;;;;;;;;;;22.52;32.19;98832.78;4852724;29;1912;-79
2021/10/04 09:30:54;;;;;;;;;;;;;;;22.18;32.14;98841.47;4867922;29;865;-79
2021/10/04 09:33:19;;;;;;;;;;;;;;;21.92;32.13;98839.41;4868765;29;870;-79
2021/10/04 09:35:45;;;;;;;;;;;;;;;21.81;32.24;98829.03;4868237;29;700;-79
2021/10/04 09:38:16;;;;;;;;;;;;;;;21.67;31.94;98829.22;4868964;29;653;-78
2021/10/04 09:40:45;;;;;;;;;;;;;;;21.67;31.81;98820.72;4867820;29;862;-79
2021/10/04 09:43:24;;;;;;;;;;;;;;;21.73;31.75;98816.19;4867885;29;909;-79
2021/10/04 09:46:05;;;;;;;;;;;;;;;21.66;31.56;98821.13;4867109;29;852;-78
2021/10/04 09:48:31;;;;;;;;;;;;;;;21.77;31.25;98814.09;4867508;29;1989;-79
2021/10/04 09:50:57;;;;;;;;;;;;;;;21.71;31.43;98821.47;4867744;29;769;-79
2021/10/04 09:53:22;;;;;;;;;;;;;;;21.82;32.08;98819.28;4867674;29;808;-79
2021/10/04 09:55:48;;;;;;;;;;;;;;;22.19;31.63;98814.72;4868283;29;949;-79
2021/10/04 09:58:15;;;;;;;;;;;;;;;22.47;31.35;98819.09;4868217;29;920;-79
2021/10/04 10:00:48;;;;;;;;;;;;;;;22.06;31.37;98808.00;4867484;29;1096;-79
2021/10/04 10:03:14;;;;;;;;;;;;;;;21.99;31.21;98810.94;4867699;29;868;-79
2021/10/04 10:05:41;;;;;;;;;;;;;;;21.69;31.75;98815.41;4868583;29;632;-79
2021/10/04 10:08:07;;;;;;;;;;;;;;;21.72;31.53;98806.09;4867474;29;1888;-79
2021/10/04 10:10:32;;;;;;;;;;;;;;;21.62;31.15;98809.88;4868041;29;1085;-79
2021/10/04 10:12:58;;;;;;;;;;;;;;;21.61;31.41;98813.94;4866882;29;914;-79
2021/10/04 10:15:27;;;;;;;;;;;;;;;21.65;31.25;98811.03;4886015;29;1381;-79
2021/10/04 10:18:19;;;;;;;;;;;;;;;21.76;31.69;98808.84;4901495;29;849;-79
2021/10/04 10:20:45;;;;;;;;;;;;;;;22.25;31.19;98809.34;4885677;29;1042;-79
2021/10/04 10:23:10;;;;;;;;;;;;;;;22.14;31.06;98803.84;4886611;29;687;-79
2021/10/04 10:25:36;;;;;;;;;;;;;;;21.95;31.58;98798.84;4886388;29;1008;-79
2021/10/04 10:28:02;;;;;;;;;;;;;;;21.99;31.43;98794.75;4886329;29;1964;-79
2021/10/04 10:30:29;;;;;;;;;;;;;;;21.78;31.49;98784.53;4901071;29;864;-80
2021/10/04 10:32:55;;;;;;;;;;;;;;;21.67;31.61;98788.78;4886569;29;735;-79
2021/10/04 10:35:40;;;;;;;;;;;;;;;21.81;31.55;98775.19;4901390;29;637;-79
2021/10/04 10:38:05;;;;;;;;;;;;;;;21.71;31.60;98783.84;4886357;29;641;-79
2021/10/04 10:40:31;;;;;;;;;;;;;;;21.83;31.33;98786.91;4886088;29;1100;-79
2021/10/04 10:43:03;;;;;;;;;;;;;;;21.68;31.48;98785.50;4886031;29;984;-79
2021/10/04 10:45:45;;;;;;;;;;;;;;;21.85;31.52;98778.75;4886404;29;1086;-79
2021/10/04 10:48:10;;;;;;;;;;;;;;;21.71;31.67;98783.84;4900666;29;1903;-79
2021/10/04 10:50:37;;;;;;;;;;;;;;;21.69;31.47;98781.44;4886483;29;672;-80
2021/10/04 10:53:06;;;;;;;;;;;;;;;21.63;31.62;98766.16;4886433;29;644;-78
2021/10/04 10:55:33;;;;;;;;;;;;;;;21.84;32.14;98771.50;4900857;29;1115;-79
2021/10/04 10:57:59;;;;;;;;;;;;;;;22.23;31.78;98781.44;4900261;29;973;-79
2021/10/04 11:00:35;;;;;;;;;;;;;;;22.46;31.92;98777.00;4886116;29;1046;-79
2021/10/04 11:03:05;;;;;;;;;;;;;;;22.05;32.15;98775.22;4900873;29;628;-80
2021/10/04 11:05:39;;;;;;;;;;;;;;;21.96;31.92;98769.28;4886137;29;624;-79
2021/10/04 11:08:04;;;;;;;;;;;;;;;21.95;31.75;98765.66;4886034;29;1903;-78
2021/10/04 11:10:30;;;;;;;;;;;;;;;21.91;31.76;98764.09;4867847;29;1036;-79
2021/10/04 11:13:08;;;;;;;;;;;;;;;21.84;31.75;98759.38;4866355;29;1253;-79
2021/10/04 11:15:34;;;;;;;;;;;;;;;21.80;31.76;98759.41;4864367;29;1178;-79
2021/10/04 11:17:59;;;;;;;;;;;;;;;21.70;32.15;98757.53;4866151;29;1213;-79
2021/10/04 11:20:25;;;;;;;;;;;;;;;21.78;31.74;98749.75;4865215;29;1222;-79
2021/10/04 11:22:50;;;;;;;;;;;;;;;21.74;32.07;98743.34;4865570;29;1197;-79
2021/10/04 11:25:16;;;;;;;;;;;;;;;21.82;31.83;98739.97;4865226;29;1245;-79
2021/10/04 11:27:48;;;;;;;;;;;;;;;21.84;31.50;98737.50;4865835;29;1899;-79
2021/10/04 11:30:13;;;;;;;;;;;;;;;21.70;32.04;98740.53;4866550;29;1116;-79
2021/10/04 11:32:39;;;;;;;;;;;;;;;21.73;32.12;98736.06;4867309;29;641;-79
2021/10/04 11:35:14;;;;;;;;;;;;;;;21.77;31.97;98746.13;4867288;29;669;-79
2021/10/04 11:37:39;;;;;;;;;;;;;;;21.74;31.88;98743.34;4867277;29;637;-79
2021/10/04 11:40:05;;;;;;;;;;;;;;;21.74;31.81;98737.66;4866942;29;1202;-79
2021/10/04 11:42:32;;;;;;;;;;;;;;;21.79;31.77;98740.00;4865714;29;1105;-79
2021/10/04 11:45:00;;;;;;;;;;;;;;;21.63;31.91;98742.69;4866149;29;1197;-79
2021/10/04 11:47:26;;;;;;;;;;;;;;;21.79;31.64;98737.97;4865449;29;1970;-79
2021/10/04 11:49:53;;;;;;;;;;;;;;;21.87;31.54;98741.53;4865298;29;1210;-79
2021/10/04 11:52:19;;;;;;;;;;;;;;;21.82;31.62;98739.97;4865287;29;1190;-79
2021/10/04 11:54:49;;;;;;;;;;;;;;;21.61;31.91;98745.97;4865682;29;1248;-79
2021/10/04 11:57:15;;;;;;;;;;;;;;;21.59;32.04;98742.75;4865702;29;1197;-80
2021/10/04 12:00:07;;;;;;;;;;;;;;;21.96;32.36;98744.59;4866169;29;1177;-79
2021/10/04 12:02:40;;;;;;;;;;;;;;;22.34;32.55;98736.69;4864751;29;1147;-79
2021/10/04 12:05:15;;;;;;;;;;;;;;;22.56;32.17;98739.13;4865914;29;1269;-79
2021/10/04 12:07:54;;;;;;;;;;;;;;;22.15;32.54;98740.25;4865795;29;1992;-79
2021/10/04 12:10:20;;;;;;;;;;;;;;;21.79;32.67;98729.47;4867603;29;1061;-80
2021/10/04 12:12:45;;;;;;;;;;;;;;;21.87;32.52;98729.38;4870326;29;877;-79
2021/10/04 12:15:11;;;;;;;;;;;;;;;21.83;32.52;98735.09;4870213;29;1112;-79
2021/10/04 12:17:37;;;;;;;;;;;;;;;21.82;32.42;98739.16;4869751;29;624;-80
2021/10/04 12:20:03;;;;;;;;;;;;;;;21.81;32.28;98732.72;4869526;29;653;-79
2021/10/04 12:22:30;;;;;;;;;;;;;;;21.85;32.35;98727.75;4870535;29;972;-79
2021/10/04 12:24:56;;;;;;;;;;;;;;;21.75;32.44;98722.28;4869262;29;964;-79
2021/10/04 12:27:22;;;;;;;;;;;;;;;21.69;32.68;98724.00;4869772;29;1987;-79
2021/10/04 12:29:48;;;;;;;;;;;;;;;21.62;32.53;98724.09;4869308;29;961;-79
2021/10/04 12:32:37;;;;;;;;;;;;;;;21.74;32.21;98715.81;4870142;29;668;-79
2021/10/04 12:35:03;;;;;;;;;;;;;;;21.88;31.90;98720.44;4868571;29;1077;-79
2021/10/04 12:37:31;;;;;;;;;;;;;;;21.73;32.25;98719.88;4869078;29;1162;-79
2021/10/04 12:39:56;;;;;;;;;;;;;;;21.80;32.19;98725.41;4868159;29;1107;-79
2021/10/04 12:42:22;;;;;;;;;;;;;;;22.15;33.03;98717.59;4868496;29;1177;-79
2021/10/04 12:44:47;;;;;;;;;;;;;;;22.40;32.79;98727.69;4868609;29;1226;-79
2021/10/04 12:47:13;;;;;;;;;;;;;;;22.20;32.59;98736.94;4869757;29;1978;-80
2021/10/04 12:49:59;;;;;;;;;;;;;;;21.93;32.86;98730.50;4869300;29;664;-78
2021/10/04 12:52:28;;;;;;;;;;;;;;;21.99;32.67;98720.28;4869447;29;1012;-79
2021/10/04 12:54:54;;;;;;;;;;;;;;;21.58;32.89;98722.13;4869510;29;1074;-79
2021/10/04 12:57:26;;;;;;;;;;;;;;;21.81;32.42;98721.38;4868511;29;878;-79
2021/10/04 12:59:59;;;;;;;;;;;;;;;21.89;32.19;98732.59;4868785;29;926;-79